aviador You're here:

KBTL Decoded Metar

BATTLE CREEK in MI, USA
Report Time2017-11-19 19:30:00
UTC Time2017-11-19 19:45:08
Flight Rules vfr VFR
Wind290° at 11 Gusting to 17 kt
W.Decomp.*RWY 31: 10.6 kt HW 3 kt LCW
RWY 23: 4.8 kt HW 9.9 kt RCW
W.Rank290° ranks 6
Current wind is above 290° avg. (9.2)
Visibility9999 m
Phenomena:N/A
Clouds:Scattered 025 Hf
Broken 032 Hf
Overcast 040 Hf
Expected CloudBase > 1,200 ft AGL from Temp-Dew spread
Ceiling3,200 ft
Temp-1°C (ISA -14)
Dew Point-4°C (80% RH)
AAT-7.5°C
QNH1014 hPa
Density Alt-741 ft
Elevation951 ft
Report Wrong Elevation
Raw Report
KBTL 191930Z 29011G17KT 10SM SCT025 BKN032 OVC040 M01/M04 A2994
RMK AO2 SNE14 P0000 T10061044 $=

Extra information for KBTL:More info

Metar Taf Metar & Taf Last 4 Metars F.Rules Stats Wind Profile Meteogram Temp Stats Airport Information Weather charts Add Link Nearby VenuesMetar ALERT Operation Metar Decoded Social comments

AIRNAV info for KBTL